Terminal Aerodrome Forecast
Issued by NWS

Home | Current Version | Previous Version | Text Only | Print | Product List | Glossary On
Versions: 1 2 3 4 5 6 7 8 9 10 11 12 13 14 15 16 17 18 19 20 21 22 23
000
FTUS43 KEAX 190500
TAFSTJ
TAF
KSTJ 190520Z 1906/2006 13003KT P6SM SKC
     FM190700 13004KT 4SM BR FEW005
      TEMPO 1908/1910 1SM BR SCT004
     FM191000 13005KT 2SM BR OVC004
      TEMPO 1911/1913 1/4SM FG OVC001
     FM191500 14007KT P6SM OVC008
     FM191700 17011KT P6SM SCT025
      TEMPO 1917/1919 BKN025=

USA.gov is the U.S. government's official web portal to all federal, state and local government web resources and services.